• Join FlightAware (Why Join?)
  • Login
  • US Flag 
10:22AM EDT


 

Airport Tracker/Info


-or-


 

Live Flight TrackerFlight Track Log ✈ AAL1144 ✈ 25-Jun-2013 ✈ KSNA - KORD

Flight Track Log - Related Links

Times and Time Zones

All times are in EDT time to prevent confusion due to time zone crossing. See the AAL1144 flight status page for this flight to view local times or setup timezone preferences in your user account.

Time Position Orientation Groundspeed Altitude Reporting Facility
EDT Latitude Longitude Course Direction KTS MPH feet Rate Location/Type
08:23PM 33.6310 -117.8910 190° South 207 238 1,900  Level FlightAware
08:24PM 33.6000 -117.8960 188° South 245 282 2,800 1,860 Climbing FlightAware
08:24PM 33.5840 -117.8970 183° South 261 300 3,300 2,880 Climbing FlightAware
08:24PM 33.5510 -117.8870 166° South 275 316 4,800 2,940 Climbing FlightAware
08:25PM 33.5180 -117.8650 151° Southeast 290 334 6,100 2,760 Climbing FlightAware
08:25PM 33.4960 -117.8290 126° Southeast 292 336 7,500 3,000 Climbing FlightAware
08:26PM 33.5050 -117.7820 77° East 291 335 9,000 2,640 Climbing FlightAware
08:27PM 33.5230 -117.7190 71° East 313 360 10,600 1,680 Climbing FlightAware
08:27PM 33.5420 -117.6440 73° East 366 421 11,300 1,620 Climbing FlightAware
08:28PM 33.5640 -117.5580 73° East 386 444 12,900 2,280 Climbing FlightAware
08:29PM 33.5830 -117.4670 76° East 395 455 14,600 2,280 Climbing FlightAware
08:29PM 33.5870 -117.3760 87° East 406 467 16,100 2,160 Climbing FlightAware
08:30PM 33.5910 -117.2790 87° East 415 478 17,700 2,220 Climbing FlightAware
08:31PM 33.5940 -117.1950 88° East 418 481 19,100 1,980 Climbing FlightAware
08:31PM 33.5980 -117.0830 88° East 433 498 20,500 1,680 Climbing FlightAware
08:32PM 33.6020 -116.9820 87° East 443 510 21,700 1,800 Climbing FlightAware
08:33PM 33.6060 -116.8750 87° East 448 516 23,100 1,860 Climbing FlightAware
08:34PM 33.6090 -116.7770 88° East 449 517 24,300 1,680 Climbing FlightAware
08:34PM 33.6120 -116.6840 88° East 454 522 25,300 1,560 Climbing FlightAware
08:35PM 33.6160 -116.5740 87° East 460 529 26,400 600 Climbing FlightAware
08:36PM 33.6210 -116.4410 87° East 460 529 26,400  Level FlightAware
08:36PM 33.6250 -116.3630 86° East 460 529 26,400  Level FlightAware
08:37PM 33.6300 -116.2550 87° East 460 529 26,400  Level FlightAware
08:38PM 33.6330 -116.1770 87° East 460 529 26,400  Level FlightAware
08:39PM 33.6370 -116.0720 87° East 460 529 26,400 3,540 Level FlightAware
08:40PM 33.6414 -115.8389 87° East 478 550 32,600 3,780 Climbing Los Angeles Center
08:41PM 33.6944 -115.6917 67° East 485 558 33,900 1,200 Climbing Los Angeles Center
08:42PM 33.7489 -115.5469 66° East 476 548 35,200 1,140 Climbing Los Angeles Center
08:43PM 33.8039 -115.4042 65° Northeast 472 543 36,300 240 Climbing Los Angeles Center
08:49PM 34.1320 -114.5460 65° Northeast 475 547 37,000 60 Climbing FlightAware
08:49PM 34.1730 -114.4390 65° Northeast 475 547 37,000  Level FlightAware
08:50PM 34.2130 -114.3320 66° East 474 545 37,000  Level FlightAware
08:51PM 34.2450 -114.2450 66° East 475 547 37,000  Level FlightAware
08:51PM 34.2840 -114.1390 66° East 475 547 37,000  Level FlightAware
08:52PM 34.3270 -114.0230 66° East 476 548 37,000  Level FlightAware
08:53PM 34.3680 -113.9120 66° East 475 547 37,000  Level FlightAware
08:54PM 34.4080 -113.8030 66° East 476 548 37,000  Level FlightAware
08:54PM 34.4470 -113.6960 66° East 476 548 37,000  Level FlightAware
08:55PM 34.4820 -113.6000 66° East 477 549 37,000  Level FlightAware
08:56PM 34.5210 -113.4920 66° East 478 550 37,000  Level FlightAware
08:56PM 34.5550 -113.3980 66° East 478 550 37,000  Level FlightAware
08:57PM 34.5950 -113.2870 66° East 477 549 37,000  Level FlightAware
08:58PM 34.6300 -113.1890 67° East 477 549 37,000  Level FlightAware
08:58PM 34.6670 -113.0860 66° East 477 549 37,000  Level FlightAware
08:59PM 34.7060 -112.9780 66° East 477 549 37,000  Level FlightAware
09:00PM 34.7390 -112.8850 67° East 477 549 37,000  Level FlightAware
09:01PM 34.7790 -112.7710 67° East 476 548 37,000  Level FlightAware
09:01PM 34.8140 -112.6730 66° East 476 548 37,000  Level FlightAware
09:02PM 34.8520 -112.5650 67° East 477 549 37,000  Level FlightAware
09:03PM 34.8860 -112.4680 67° East 478 550 37,000  Level FlightAware
09:03PM 34.9230 -112.3630 67° East 479 551 37,000  Level FlightAware
09:04PM 34.9600 -112.2570 67° East 479 551 37,000  Level FlightAware
09:05PM 34.9980 -112.1480 67° East 479 551 37,000  Level FlightAware
09:06PM 35.0340 -112.0440 67° East 479 551 37,000  Level FlightAware
09:06PM 35.0690 -111.9420 67° East 480 552 37,000  Level FlightAware
09:07PM 35.1050 -111.8400 67° East 480 552 37,000  Level FlightAware
09:08PM 35.1410 -111.7330 68° East 481 554 37,000  Level FlightAware
09:08PM 35.1780 -111.6250 67° East 481 554 37,000  Level FlightAware
09:09PM 35.2130 -111.5230 67° East 482 555 37,000  Level FlightAware
09:10PM 35.2500 -111.4140 67° East 482 555 37,000  Level FlightAware
09:10PM 35.2850 -111.3110 67° East 480 552 37,000  Level FlightAware
09:11PM 35.3220 -111.2020 67° East 481 554 37,000  Level FlightAware
09:12PM 35.3570 -111.0950 68° East 482 555 37,000  Level FlightAware
09:12PM 35.3910 -110.9950 67° East 483 556 37,000  Level FlightAware
09:13PM 35.4270 -110.8860 68° East 483 556 37,000  Level FlightAware
09:14PM 35.4620 -110.7830 67° East 483 556 37,000  Level FlightAware
09:15PM 35.4960 -110.6800 68° East 484 557 37,000  Level FlightAware
09:15PM 35.5320 -110.5700 68° East 485 558 37,000  Level FlightAware
09:16PM 35.5670 -110.4640 68° East 485 558 37,000  Level FlightAware
09:17PM 35.6160 -110.3160 68° East 484 557 37,000  Level FlightAware
09:18PM 35.6510 -110.2080 68° East 484 557 37,000  Level FlightAware
09:18PM 35.6760 -110.1320 68° East 485 558 37,000  Level FlightAware
09:19PM 35.7080 -110.0330 68° East 485 558 37,000  Level FlightAware
09:20PM 35.7440 -109.9230 68° East 487 560 37,000  Level FlightAware
09:20PM 35.7730 -109.8320 69° East 487 560 37,000  Level FlightAware
09:21PM 35.8080 -109.7250 68° East 487 560 37,000  Level FlightAware
09:22PM 35.8480 -109.5980 69° East 485 558 37,000  Level FlightAware
09:22PM 35.8830 -109.4870 69° East 485 558 37,000  Level FlightAware
09:23PM 35.9280 -109.3490 68° East 485 558 37,000  Level FlightAware
09:24PM 35.9540 -109.2680 68° East 485 558 37,000  Level FlightAware
09:25PM 35.9990 -109.1310 68° East 485 558 37,000  Level FlightAware
09:26PM 36.0250 -109.0500 68° East 485 558 37,000  Level FlightAware
09:26PM 36.0510 -108.9710 68° East 485 558 37,000  Level FlightAware
09:27PM 36.0850 -108.8660 68° East 485 558 37,000  Level FlightAware
09:28PM 36.1110 -108.7870 68° East 485 558 37,000  Level FlightAware
09:28PM 36.1450 -108.6820 68° East 485 558 37,000  Level FlightAware
09:29PM 36.1780 -108.5810 68° East 485 558 37,000  Level FlightAware
09:30PM 36.2050 -108.5000 68° East 485 558 37,000  Level FlightAware
09:31PM 36.2390 -108.3950 68° East 485 558 37,000  Level FlightAware
09:31PM 36.2650 -108.3140 68° East 485 558 37,000  Level FlightAware
09:32PM 36.2920 -108.2330 68° East 485 558 37,000  Level FlightAware
09:33PM 36.3740 -107.9030 73° East 487 560 37,000  Level FlightAware
09:33PM 36.4010 -107.8140 69° East 487 560 37,000  Level FlightAware
09:34PM 36.4420 -107.6830 69° East 487 560 37,000  Level FlightAware
09:35PM 36.4660 -107.6030 70° East 487 560 37,000  Level FlightAware
09:36PM 36.5000 -107.4940 69° East 487 560 37,000  Level FlightAware
09:36PM 36.5230 -107.4180 69° East 487 560 37,000  Level FlightAware
09:37PM 36.5560 -107.3120 69° East 487 560 37,000  Level FlightAware
09:38PM 36.5810 -107.2310 69° East 487 560 37,000  Level FlightAware
09:38PM 36.6150 -107.1200 69° East 487 560 37,000  Level FlightAware
09:39PM 36.6400 -107.0400 69° East 487 560 37,000  Level FlightAware
09:40PM 36.6720 -106.9350 69° East 487 560 37,000  Level FlightAware
09:40PM 36.6980 -106.8530 68° East 487 560 37,000  Level FlightAware
09:41PM 36.7310 -106.7450 69° East 487 560 37,000  Level FlightAware
09:42PM 36.7550 -106.6670 69° East 487 560 37,000 1,320 Level FlightAware
09:43PM 36.8347 -106.3342 69° East 484 557 39,000 1,020 Climbing Denver Center
09:44PM 36.8819 -106.1678 70° East 483 556 39,000  Level Denver Center
09:50PM 37.1526 -105.1860 70° East 491 565 39,000  Level FlightAware ADS-B
09:50PM 37.1750 -105.1040 71° East 492 566 39,000  Level FlightAware ADS-B
09:51PM 37.2024 -105.0030 71° East 492 566 39,000  Level FlightAware ADS-B
09:52PM 37.2437 -104.8500 71° East 490 564 39,000  Level FlightAware ADS-B
09:52PM 37.2681 -104.7590 71° East 489 563 39,000  Level FlightAware ADS-B
09:53PM 37.2902 -104.6770 71° East 488 562 39,000  Level FlightAware ADS-B
09:54PM 37.3374 -104.4990 72° East 487 560 39,000  Level FlightAware ADS-B
09:55PM 37.3667 -104.3890 71° East 485 558 39,000  Level FlightAware ADS-B
09:56PM 37.4266 -104.1610 72° East 484 557 39,000  Level FlightAware ADS-B
09:57PM 37.4481 -104.0790 72° East 481 554 39,000  Level FlightAware ADS-B
09:57PM 37.4692 -103.9980 72° East 479 551 39,000  Level FlightAware ADS-B
09:58PM 37.4942 -103.9010 72° East 478 550 39,000  Level FlightAware ADS-B
09:58PM 37.5191 -103.8060 72° East 475 547 39,000  Level FlightAware ADS-B
09:59PM 37.5419 -103.7170 72° East 474 545 39,000  Level FlightAware ADS-B
10:00PM 37.5626 -103.6360 72° East 472 543 39,000  Level FlightAware ADS-B
10:00PM 37.5828 -103.5570 72° East 471 542 39,000  Level FlightAware ADS-B
10:01PM 37.6030 -103.4780 72° East 470 541 39,000  Level FlightAware ADS-B
10:01PM 37.6230 -103.4000 72° East 470 541 39,000  Level FlightAware ADS-B
10:02PM 37.6433 -103.3200 72° East 469 540 39,000  Level FlightAware ADS-B
10:02PM 37.6632 -103.2410 72° East 470 541 39,000  Level FlightAware ADS-B
10:03PM 37.6832 -103.1620 72° East 472 543 39,000  Level FlightAware ADS-B
10:03PM 37.7033 -103.0820 72° East 473 544 39,000  Level FlightAware ADS-B
10:04PM 37.7236 -103.0010 72° East 473 544 39,000  Level FlightAware ADS-B
10:04PM 37.7433 -102.9220 72° East 473 544 39,000  Level FlightAware ADS-B
10:05PM 37.7638 -102.8400 72° East 471 542 39,000  Level FlightAware ADS-B
10:05PM 37.7838 -102.7590 73° East 472 543 39,000  Level FlightAware ADS-B
10:06PM 37.8031 -102.6810 73° East 471 542 39,000  Level FlightAware ADS-B
10:06PM 37.8225 -102.6020 73° East 470 541 39,000  Level FlightAware ADS-B
10:07PM 37.8431 -102.5180 73° East 470 541 39,000  Level FlightAware ADS-B
10:07PM 37.8630 -102.4370 73° East 470 541 39,000  Level FlightAware ADS-B
10:08PM 37.8825 -102.3570 73° East 469 540 39,000  Level FlightAware ADS-B
10:08PM 37.9017 -102.2780 73° East 469 540 39,000  Level FlightAware ADS-B
10:09PM 37.9211 -102.1990 73° East 471 542 39,000  Level FlightAware ADS-B
10:09PM 37.9406 -102.1180 73° East 473 544 39,000  Level FlightAware ADS-B
10:10PM 37.9597 -102.0390 73° East 474 545 39,000  Level FlightAware ADS-B
10:10PM 37.9791 -101.9580 73° East 474 545 39,000  Level FlightAware ADS-B
10:11PM 38.0009 -101.8670 73° East 473 544 39,000  Level FlightAware ADS-B
10:11PM 38.0199 -101.7870 73° East 472 543 39,000  Level FlightAware ADS-B
10:12PM 38.0398 -101.7030 73° East 472 543 39,000  Level FlightAware ADS-B
10:12PM 38.0588 -101.6230 73° East 470 541 39,000  Level FlightAware ADS-B
10:14PM 38.1075 -101.4172 73° East 469 540 39,000  Level Denver Center
10:15PM 38.1497 -101.2692 70° East 466 536 39,000  Level Denver Center
10:16PM 38.1989 -101.0919 71° East 469 540 39,000  Level Kansas City Center
10:17PM 38.2389 -100.9403 71° East 470 541 39,000  Level Kansas City Center
10:18PM 38.2864 -100.7628 71° East 472 543 39,000  Level Kansas City Center
10:23PM 38.5030 -99.9410 71° East 466 536 39,000  Level FlightAware
10:24PM 38.5310 -99.8370 71° East 466 536 39,000  Level FlightAware
10:24PM 38.5580 -99.7310 72° East 468 539 39,000  Level FlightAware
10:25PM 38.5860 -99.6260 71° East 468 539 39,000  Level FlightAware
10:26PM 38.6130 -99.5240 71° East 468 539 39,000  Level FlightAware
10:27PM 38.6470 -99.3770 73° East 465 535 39,000  Level FlightAware
10:27PM 38.6690 -99.2940 71° East 464 534 39,000  Level FlightAware
10:28PM 38.6960 -99.1870 72° East 464 534 39,000  Level FlightAware
10:29PM 38.7160 -99.1070 72° East 464 534 39,000  Level FlightAware
10:29PM 38.7430 -99.0000 72° East 464 534 39,000  Level FlightAware
10:30PM 38.7836 -98.8335 73° East 480 552 39,000  Level FlightAware ADS-B
10:31PM 38.8078 -98.7353 72° East 479 551 39,000  Level FlightAware ADS-B
10:31PM 38.8283 -98.6521 72° East 479 551 39,000  Level FlightAware ADS-B
10:32PM 38.8530 -98.5520 72° East 478 550 39,000  Level FlightAware
10:32PM 38.8649 -98.5027 73° East 479 551 39,000  Level FlightAware ADS-B
10:33PM 38.8849 -98.4208 73° East 479 551 39,000  Level FlightAware ADS-B
10:33PM 38.9058 -98.3350 73° East 479 551 39,000  Level FlightAware ADS-B
10:34PM 38.9258 -98.2525 73° East 479 551 39,000  Level FlightAware ADS-B
10:34PM 38.9582 -98.1185 73° East 479 551 39,000  Level FlightAware ADS-B
10:35PM 38.9783 -98.0348 73° East 479 551 39,000  Level FlightAware ADS-B
10:35PM 38.9986 -97.9495 73° East 480 552 39,000  Level FlightAware ADS-B
10:36PM 39.0181 -97.8677 73° East 479 551 39,000  Level FlightAware ADS-B
10:36PM 39.0376 -97.7853 73° East 480 552 39,000  Level FlightAware ADS-B
10:37PM 39.0571 -97.7029 73° East 479 551 39,000  Level FlightAware ADS-B
10:37PM 39.0766 -97.6200 73° East 479 551 39,000  Level FlightAware ADS-B
10:38PM 39.0961 -97.5370 73° East 478 550 39,000  Level FlightAware ADS-B
10:39PM 39.1175 -97.4457 73° East 478 550 39,000  Level FlightAware ADS-B
10:39PM 39.1371 -97.3622 73° East 478 550 39,000  Level FlightAware ADS-B
10:40PM 39.1562 -97.2803 73° East 476 548 39,000  Level FlightAware ADS-B
10:40PM 39.1751 -97.1989 73° East 475 547 39,000  Level FlightAware ADS-B
10:41PM 39.1939 -97.1174 73° East 472 543 39,000  Level FlightAware ADS-B
10:41PM 39.2127 -97.0353 74° East 471 542 39,000  Level FlightAware ADS-B
10:42PM 39.2320 -96.9508 74° East 470 541 39,000  Level FlightAware ADS-B
10:42PM 39.2504 -96.8702 74° East 470 541 39,000  Level FlightAware ADS-B
10:43PM 39.2687 -96.7896 74° East 470 541 39,000  Level FlightAware ADS-B
10:43PM 39.2876 -96.7064 74° East 470 541 39,000  Level FlightAware ADS-B
10:44PM 39.3060 -96.6250 74° East 471 542 39,000  Level FlightAware ADS-B
10:44PM 39.3244 -96.5430 74° East 471 542 39,000  Level FlightAware ADS-B
10:45PM 39.3426 -96.4616 74° East 472 543 39,000  Level FlightAware ADS-B
10:45PM 39.3612 -96.3787 74° East 472 543 39,000  Level FlightAware ADS-B
10:46PM 39.3800 -96.2943 74° East 473 544 39,000  Level FlightAware ADS-B
10:46PM 39.3981 -96.2124 74° East 476 548 39,000  Level FlightAware ADS-B
10:47PM 39.4165 -96.1291 74° East 479 551 39,000  Level FlightAware ADS-B
10:47PM 39.4372 -96.0372 74° East 478 550 39,000  Level FlightAware ADS-B
10:47PM 39.4400 -96.0270 70° East 477 549 39,000  Level FlightAware ADS-B
10:48PM 39.4669 -95.9537 65° Northeast 471 542 39,000  Level FlightAware ADS-B
10:48PM 39.4818 -95.9232 58° Northeast 469 540 39,000  Level FlightAware ADS-B
10:49PM 39.5222 -95.8436 57° Northeast 470 541 39,000  Level FlightAware ADS-B
10:49PM 39.5598 -95.7690 57° Northeast 470 541 39,000  Level FlightAware ADS-B
10:50PM 39.5959 -95.6970 57° Northeast 471 542 39,000  Level FlightAware ADS-B
10:50PM 39.6318 -95.6252 57° Northeast 471 542 39,000  Level FlightAware ADS-B
10:51PM 39.6673 -95.5544 57° Northeast 471 542 39,000  Level FlightAware ADS-B
10:51PM 39.7043 -95.4804 57° Northeast 471 542 39,000  Level FlightAware ADS-B
10:52PM 39.7400 -95.4086 57° Northeast 470 541 39,000  Level FlightAware ADS-B
10:52PM 39.7756 -95.3372 57° Northeast 470 541 39,000  Level FlightAware ADS-B
10:53PM 39.8139 -95.2599 57° Northeast 470 541 39,000  Level FlightAware ADS-B
10:53PM 39.8498 -95.1874 57° Northeast 470 541 39,000  Level FlightAware ADS-B
10:54PM 39.8857 -95.1147 57° Northeast 470 541 39,000  Level FlightAware ADS-B
10:54PM 39.8994 -95.0888 55° Northeast 467 537 39,000  Level FlightAware ADS-B
10:54PM 39.9132 -95.0681 49° Northeast 463 533 39,000  Level FlightAware ADS-B
10:55PM 39.9600 -95.0105 43° Northeast 462 532 39,000  Level FlightAware ADS-B
10:55PM 40.0071 -94.9536 43° Northeast 462 532 39,000  Level FlightAware ADS-B
10:55PM 40.0424 -94.9100 43° Northeast 464 534 39,000  Level FlightAware ADS-B
10:56PM 40.0583 -94.8853 50° Northeast 467 537 39,000  Level FlightAware ADS-B
10:56PM 40.0720 -94.8610 54° Northeast 470 541 39,000  Level FlightAware ADS-B
10:56PM 40.1078 -94.7863 58° Northeast 473 544 39,000  Level FlightAware ADS-B
10:57PM 40.1421 -94.7131 58° Northeast 473 544 39,000  Level FlightAware ADS-B
10:57PM 40.1764 -94.6394 59° Northeast 474 545 39,000  Level FlightAware ADS-B
10:58PM 40.2107 -94.5652 59° Northeast 474 545 39,000  Level FlightAware ADS-B
10:58PM 40.2448 -94.4916 59° Northeast 476 548 39,000  Level FlightAware ADS-B
10:59PM 40.2799 -94.4156 59° Northeast 476 548 39,000  Level FlightAware ADS-B
10:59PM 40.3181 -94.3328 59° Northeast 479 551 39,000  Level FlightAware ADS-B
11:00PM 40.3528 -94.2573 59° Northeast 480 552 39,000  Level FlightAware ADS-B
11:00PM 40.3876 -94.1816 59° Northeast 482 555 39,000  Level FlightAware ADS-B
11:01PM 40.4227 -94.1051 59° Northeast 483 556 39,000  Level FlightAware ADS-B
11:01PM 40.4572 -94.0298 59° Northeast 484 557 39,000  Level FlightAware ADS-B
11:02PM 40.4942 -93.9490 59° Northeast 486 559 39,000  Level FlightAware ADS-B
11:02PM 40.5293 -93.8715 59° Northeast 486 559 39,000  Level FlightAware ADS-B
11:03PM 40.5649 -93.7928 59° Northeast 486 559 39,000  Level FlightAware ADS-B
11:04PM 40.6136 -93.6851 59° Northeast 482 555 39,000  Level FlightAware ADS-B
11:04PM 40.6478 -93.6093 59° Northeast 480 552 39,000 -600 Level FlightAware ADS-B
11:05PM 40.6886 -93.5188 59° Northeast 482 555 38,400 -1,020 Descending FlightAware ADS-B
11:05PM 40.7235 -93.4421 59° Northeast 489 563 37,900 -1,020 Descending FlightAware ADS-B
11:06PM 40.7601 -93.3605 59° Northeast 496 571 37,400 -780 Descending FlightAware ADS-B
11:06PM 40.7960 -93.2792 60° Northeast 495 570 37,100 -420 Descending FlightAware ADS-B
11:07PM 40.8307 -93.2009 60° Northeast 495 570 37,000 -120 Descending FlightAware ADS-B
11:07PM 40.8659 -93.1220 59° Northeast 493 567 37,000  Level FlightAware ADS-B
11:08PM 40.9034 -93.0373 60° Northeast 492 566 37,000  Level FlightAware ADS-B
11:09PM 40.9568 -92.9168 60° Northeast 491 565 37,000  Level FlightAware ADS-B
11:10PM 41.0330 -92.7810 53° Northeast 487 560 37,000  Level FlightAware
11:10PM 41.0940 -92.6910 48° Northeast 487 560 37,000  Level FlightAware
11:11PM 41.1590 -92.5960 48° Northeast 490 564 37,000  Level FlightAware
11:12PM 41.2260 -92.4970 48° Northeast 492 566 37,000  Level FlightAware
11:12PM 41.2930 -92.3980 48° Northeast 494 568 37,000  Level FlightAware
11:13PM 41.3510 -92.3130 48° Northeast 495 570 37,000  Level FlightAware
11:14PM 41.4150 -92.2160 49° Northeast 497 572 37,000  Level FlightAware
11:14PM 41.4760 -92.1260 48° Northeast 497 572 37,000  Level FlightAware
11:15PM 41.5440 -92.0230 49° Northeast 497 572 37,000  Level FlightAware
11:16PM 41.5920 -91.9520 48° Northeast 496 571 37,000  Level FlightAware
11:17PM 41.6690 -91.8350 49° Northeast 495 570 37,000  Level FlightAware
11:17PM 41.7400 -91.7290 48° Northeast 494 568 37,000  Level FlightAware
11:18PM 41.8000 -91.6370 49° Northeast 493 567 37,000  Level FlightAware
11:19PM 41.8670 -91.5360 48° Northeast 491 565 37,000  Level FlightAware
11:19PM 41.9240 -91.4480 49° Northeast 484 557 37,000  Level FlightAware
11:20PM 41.9800 -91.3630 48° Northeast 482 555 37,000 -480 Level FlightAware
11:21PM 42.0460 -91.2620 49° Northeast 489 563 36,400 -960 Descending FlightAware
11:22PM 42.1100 -91.1630 49° Northeast 494 568 35,600 -1,320 Descending FlightAware
11:22PM 42.1730 -91.0660 49° Northeast 486 559 34,600 -1,260 Descending FlightAware
11:23PM 42.2330 -90.9720 49° Northeast 484 557 33,900 -900 Descending FlightAware
11:24PM 42.2930 -90.8780 49° Northeast 482 555 33,400 -660 Descending FlightAware
11:24PM 42.3590 -90.7750 49° Northeast 479 551 33,000 -1,020 Descending FlightAware
11:25PM 42.4060 -90.6590 61° Northeast 487 560 31,900 -1,620 Descending FlightAware
11:26PM 42.4190 -90.5390 82° East 485 558 30,800 -1,740 Descending FlightAware
11:26PM 42.4280 -90.4150 84° East 477 549 29,600 -1,740 Descending FlightAware
11:27PM 42.4250 -90.2920 92° East 470 541 28,400 -1,860 Descending FlightAware
11:28PM 42.4220 -90.1630 92° East 462 532 27,000 -1,860 Descending FlightAware
11:29PM 42.4200 -90.0490 91° East 452 520 25,800 -1,800 Descending FlightAware
11:29PM 42.4170 -89.9260 92° East 440 506 24,500 -1,860 Descending FlightAware
11:30PM 42.4150 -89.8150 91° East 455 524 23,200 -1,980 Descending FlightAware
11:31PM 42.4110 -89.6920 92° East 447 514 21,800 -1,920 Descending FlightAware
11:31PM 42.4090 -89.5740 91° East 438 504 20,500 -1,860 Descending FlightAware
11:32PM 42.4060 -89.4660 92° East 422 486 19,300 -1,800 Descending FlightAware
11:33PM 42.4020 -89.3530 93° East 417 480 18,000 -1,800 Descending FlightAware
11:33PM 42.3990 -89.2470 92° East 416 479 16,800 -1,740 Descending FlightAware
11:34PM 42.3960 -89.1400 92° East 417 480 15,700 -1,740 Descending FlightAware
11:35PM 42.3930 -89.0250 92° East 409 471 14,400 -1,800 Descending FlightAware
11:36PM 42.3890 -88.9210 93° East 400 460 13,200 -1,680 Descending FlightAware
11:36PM 42.3860 -88.8170 92° East 385 443 12,100 -1,560 Descending FlightAware
11:37PM 42.3830 -88.7210 92° East 379 436 11,100 -1,320 Descending FlightAware
11:38PM 42.3800 -88.6330 93° East 375 432 10,400 -720 Descending FlightAware
11:38PM 42.3760 -88.5240 93° East 369 425 10,100 -240 Descending FlightAware
11:39PM 42.3570 -88.4390 107° East 376 433 10,100  Level FlightAware
11:40PM 42.3180 -88.3520 121° Southeast 373 429 10,100  Level FlightAware
11:40PM 42.2700 -88.2710 129° Southeast 372 428 10,100  Level FlightAware
11:41PM 42.2250 -88.1950 129° Southeast 371 427 10,100  Level FlightAware
11:42PM 42.1780 -88.1260 133° Southeast 371 427 10,100 -120 Level FlightAware
11:43PM 42.1250 -88.0660 140° Southeast 324 373 10,000 -420 Descending FlightAware
11:43PM 42.1070 -88.0440 138° Southeast 316 364 9,700 -1,080 Descending FlightAware
11:43PM 42.0980 -88.0270 126° Southeast 314 361 9,500 -1,320 Descending FlightAware
11:43PM 42.0920 -87.9950 104° East 310 357 9,100 -1,500 Descending FlightAware
11:43PM 42.0920 -87.9870 90° East 310 357 9,000 -1,500 Descending FlightAware
11:44PM 42.0920 -87.9180 90° East 309 356 8,100 -1,320 Descending FlightAware
11:44PM 42.0920 -87.8740 90° East 296 341 7,700 -780 Descending FlightAware
11:45PM 42.0920 -87.8350 90° East 272 313 7,500 -1,080 Descending FlightAware
11:45PM 42.0920 -87.7990 90° East 261 300 6,900 -1,740 Descending FlightAware
11:46PM 42.0920 -87.7600 90° East 257 296 6,200 -1,920 Descending FlightAware
11:46PM 42.0830 -87.7100 104° East 251 289 5,100 -1,980 Descending FlightAware
11:46PM 42.0740 -87.7000 140° Southeast 246 283 4,800 -1,560 Descending FlightAware
11:47PM 42.0580 -87.6940 164° South 232 267 4,400 -1,620 Descending FlightAware
11:47PM 42.0520 -87.6940 180° South 230 265 4,200 -1,860 Descending FlightAware
11:47PM 42.0320 -87.7030 198° South 214 246 3,600 -1,680 Descending FlightAware
11:47PM 42.0210 -87.7150 219° Southwest 205 236 3,200 -1,320 Descending FlightAware
11:48PM 42.0050 -87.7380 227° Southwest 187 215 2,700 -900 Descending FlightAware
11:48PM 41.9890 -87.7650 231° Southwest 170 196 2,400 -600 Descending FlightAware
11:49PM 41.9840 -87.7830 250° West 158 182 2,200 -780 Descending FlightAware
11:49PM 41.9840 -87.8030 270° West 152 175 1,900 -660 Descending FlightAware
11:49PM 41.9840 -87.8280 270° West 143 165 1,700 -660 Descending FlightAware
11:49PM 41.9840 -87.8370 270° West 142 163 1,500 -1,080 Descending FlightAware
11:50PM 41.9840 -87.8500 270° West 141 162 1,300 -840 Descending FlightAware
11:50PM 41.9840 -87.8790 270° West 142 163 900 -720 Descending FlightAware
11:50PM 41.9840 -87.8880 270° West 142 163 800 -600 Descending FlightAware
11:51PM 41.9840 -87.9190 270° West 105 121 -1,020 Descending FlightAware